Terminal Aerodrome Forecast
Issued by NWS Pendleton, OR

Home | Current Version | Previous Version | Text Only | Print | Product List | Glossary On
Versions: 1 2 3 4 5 6 7 8 9 10 11 12 13 14 15 16 17
038
FTUS46 KPDT 101738
TAFPDT
TAF
KPDT 101738Z 1018/1118 04004KT P6SM BKN150
     FM102000 VRB05KT P6SM BKN100 BKN250
     FM110400 15005KT P6SM BKN060 OVC090
     FM111400 VRB04KT P6SM OVC100=

USA.gov is the U.S. government's official web portal to all federal, state and local government web resources and services.